createdAt,value
2023-02-27T00:01:08.541Z,3.75
2023-02-27T00:03:38.086Z,3.22
2023-02-27T00:06:07.790Z,3.35
2023-02-27T00:08:37.719Z,3.15
2023-02-27T00:11:07.261Z,3.45
2023-02-27T00:13:37.262Z,3.70
2023-02-27T00:16:08.002Z,3.42
2023-02-27T00:18:37.592Z,3.10
2023-02-27T00:21:07.596Z,3.10
2023-02-27T00:23:37.090Z,3.45
2023-02-27T00:26:07.025Z,3.33
2023-02-27T00:28:36.449Z,3.42
2023-02-27T00:31:06.274Z,3.22
2023-02-27T00:33:36.165Z,3.50
2023-02-27T00:36:05.815Z,3.85
2023-02-27T00:38:37.042Z,3.72
2023-02-27T00:41:06.623Z,3.67
2023-02-27T00:43:36.046Z,3.45
2023-02-27T00:46:05.873Z,3.27
2023-02-27T00:48:35.359Z,3.45
2023-02-27T00:51:05.315Z,2.75
2023-02-27T00:53:35.058Z,2.58
2023-02-27T00:56:04.612Z,2.70
2023-02-27T00:58:34.066Z,2.72
2023-02-27T01:01:03.766Z,2.95
2023-02-27T01:03:34.357Z,2.50
2023-02-27T01:06:04.173Z,2.50
2023-02-27T01:08:33.665Z,2.70
2023-02-27T01:11:05.003Z,2.40
2023-02-27T01:13:34.663Z,2.47
2023-02-27T01:16:04.184Z,3.25
2023-02-27T01:18:33.992Z,2.85
2023-02-27T01:21:03.577Z,2.83
2023-02-27T01:23:33.051Z,2.92
2023-02-27T01:26:03.538Z,2.10
2023-02-27T01:28:32.952Z,2.33
2023-02-27T01:31:02.434Z,2.12
2023-02-27T01:33:34.125Z,3.47
2023-02-27T01:36:04.026Z,4.40
2023-02-27T01:38:33.453Z,4.75
2023-02-27T01:41:05.169Z,4.80
2023-02-27T01:43:35.984Z,3.85
2023-02-27T01:46:05.902Z,5.37
2023-02-27T01:48:40.287Z,4.20
2023-02-27T01:51:12.788Z,4.40
2023-02-27T01:53:44.712Z,3.98
2023-02-27T01:56:23.313Z,3.30
2023-02-27T01:58:56.606Z,3.05
2023-02-27T02:01:30.167Z,2.67
2023-02-27T02:04:17.160Z,2.45
2023-02-27T02:06:50.435Z,2.85
2023-02-27T02:09:22.652Z,2.52
2023-02-27T02:11:53.014Z,2.40
2023-02-27T02:14:22.655Z,2.83
2023-02-27T02:17:17.568Z,2.90
2023-02-27T02:20:11.321Z,2.80
2023-02-27T02:23:11.409Z,2.65
2023-02-27T02:26:09.600Z,2.62
2023-02-27T02:29:05.862Z,2.70
2023-02-27T02:32:04.327Z,2.65
2023-02-27T02:34:57.421Z,2.75
2023-02-27T02:38:05.128Z,3.25
2023-02-27T02:40:51.888Z,2.67
2023-02-27T02:43:24.615Z,3.02
2023-02-27T02:48:40.131Z,2.50
2023-02-27T02:51:30.730Z,2.40
2023-02-27T02:54:03.516Z,2.70
2023-02-27T02:56:38.844Z,2.65
2023-02-27T02:59:11.584Z,3.02
2023-02-27T03:01:47.548Z,2.30
2023-02-27T03:04:27.521Z,2.80
2023-02-27T03:07:03.028Z,2.72
2023-02-27T03:09:41.349Z,2.67
2023-02-27T03:12:14.080Z,2.62
2023-02-27T03:14:55.304Z,2.60
2023-02-27T03:17:28.371Z,2.50
2023-02-27T03:20:04.555Z,2.33
2023-02-27T03:22:37.110Z,2.83
2023-02-27T03:25:46.487Z,2.42
2023-02-27T03:28:19.451Z,2.62
2023-02-27T03:30:54.896Z,2.72
2023-02-27T03:33:27.663Z,2.60
2023-02-27T03:36:03.368Z,2.10
2023-02-27T03:38:35.861Z,2.95
2023-02-27T03:41:25.731Z,2.77
2023-02-27T03:44:03.352Z,2.33
2023-02-27T03:46:33.359Z,2.25
2023-02-27T03:49:03.348Z,2.40
2023-02-27T03:51:33.800Z,2.40
2023-02-27T03:54:06.370Z,2.50
2023-02-27T03:59:09.680Z,2.80
2023-02-27T04:01:41.118Z,2.22
2023-02-27T04:04:16.452Z,2.58
2023-02-27T04:10:08.066Z,2.55
2023-02-27T04:12:49.765Z,2.12
2023-02-27T04:15:25.194Z,2.70
2023-02-27T04:18:24.862Z,2.30
2023-02-27T04:21:00.163Z,2.02
2023-02-27T04:23:42.195Z,2.05
2023-02-27T04:26:32.006Z,2.80
2023-02-27T04:29:10.195Z,2.42
2023-02-27T04:31:59.199Z,2.50
2023-02-27T04:34:46.747Z,2.47
2023-02-27T04:37:21.966Z,2.30
2023-02-27T04:40:00.768Z,2.65
2023-02-27T04:42:36.369Z,2.45
2023-02-27T04:45:09.202Z,2.72
2023-02-27T04:47:41.863Z,2.50
2023-02-27T04:50:14.536Z,2.55
2023-02-27T04:52:49.763Z,2.80
2023-02-27T04:55:25.297Z,2.60
2023-02-27T04:58:06.716Z,2.90
2023-02-27T05:00:39.177Z,2.92
2023-02-27T05:03:11.688Z,2.85
2023-02-27T05:05:44.163Z,2.80
2023-02-27T05:08:19.586Z,3.15
2023-02-27T05:10:52.173Z,2.72
2023-02-27T05:13:33.350Z,3.20
2023-02-27T05:16:08.785Z,3.25
2023-02-27T05:18:38.689Z,2.77
2023-02-27T05:21:29.733Z,2.72
2023-02-27T05:24:11.212Z,3.08
2023-02-27T05:27:02.282Z,2.87
2023-02-27T05:29:43.680Z,3.00
2023-02-27T05:32:21.864Z,3.27
2023-02-27T05:34:57.507Z,2.67
2023-02-27T05:37:32.791Z,2.95
2023-02-27T05:40:08.479Z,2.80
2023-02-27T05:42:41.245Z,3.05
2023-02-27T05:45:17.734Z,3.10
2023-02-27T05:47:50.957Z,3.50
2023-02-27T05:52:52.557Z,3.77
2023-02-27T05:55:30.343Z,3.77
2023-02-27T05:58:19.370Z,3.62
2023-02-27T06:01:07.300Z,3.90
2023-02-27T06:03:39.283Z,4.00
2023-02-27T06:06:11.792Z,3.63
2023-02-27T06:08:41.375Z,4.47
2023-02-27T06:11:10.992Z,8.73
2023-02-27T06:13:42.185Z,16.75
2023-02-27T06:16:14.754Z,21.33
2023-02-27T06:18:45.023Z,17.15
2023-02-27T06:21:15.414Z,37.80
2023-02-27T06:23:44.873Z,8.43
2023-02-27T06:26:14.409Z,6.45
2023-02-27T06:28:43.897Z,5.35
2023-02-27T06:31:14.234Z,4.80
2023-02-27T06:33:45.414Z,5.15
2023-02-27T06:36:15.310Z,5.28
2023-02-27T06:38:44.930Z,5.65
2023-02-27T06:41:15.050Z,5.72
2023-02-27T06:43:44.629Z,5.12
2023-02-27T06:46:14.155Z,4.80
2023-02-27T06:48:43.833Z,4.55
2023-02-27T06:51:13.445Z,3.95
2023-02-27T06:53:43.183Z,3.90
2023-02-27T06:56:12.742Z,3.77
2023-02-27T06:58:42.414Z,4.28
2023-02-27T07:01:13.542Z,4.30
2023-02-27T07:03:42.985Z,4.10
2023-02-27T07:06:13.812Z,3.70
2023-02-27T07:09:01.892Z,4.85
2023-02-27T07:11:14.494Z,6.78
2023-02-27T07:13:43.910Z,4.75
2023-02-27T07:16:13.369Z,5.25
2023-02-27T07:18:43.498Z,4.40
2023-02-27T07:21:12.977Z,4.35
2023-02-27T07:23:45.668Z,5.12
2023-02-27T07:26:15.103Z,5.10
2023-02-27T07:28:44.558Z,4.40
2023-02-27T07:31:15.248Z,4.83
2023-02-27T07:33:44.797Z,4.15
2023-02-27T07:36:14.288Z,4.17
2023-02-27T07:38:44.117Z,3.90
2023-02-27T07:41:29.492Z,4.55
2023-02-27T07:43:45.388Z,5.15
2023-02-27T07:46:15.009Z,4.28
2023-02-27T07:48:44.396Z,4.80
2023-02-27T07:51:14.026Z,4.25
2023-02-27T07:53:43.459Z,5.03
2023-02-27T07:56:14.124Z,4.50
2023-02-27T07:58:43.746Z,4.83
2023-02-27T08:01:13.404Z,4.17
2023-02-27T08:03:43.671Z,4.35
2023-02-27T08:06:13.156Z,4.37
2023-02-27T08:08:42.762Z,4.35
2023-02-27T08:11:12.793Z,5.28
2023-02-27T08:13:59.627Z,5.25
2023-02-27T08:16:13.722Z,5.57
2023-02-27T08:18:43.281Z,4.22
2023-02-27T08:21:13.317Z,4.20
2023-02-27T08:23:42.791Z,4.70
2023-02-27T08:26:12.269Z,4.20
2023-02-27T08:28:42.989Z,4.25
2023-02-27T08:31:12.535Z,4.97
2023-02-27T08:33:42.015Z,4.75
2023-02-27T08:36:11.920Z,4.70
2023-02-27T08:38:41.471Z,4.45
2023-02-27T08:41:11.088Z,5.73
2023-02-27T08:43:43.246Z,4.20
2023-02-27T08:46:12.746Z,4.58
2023-02-27T08:48:42.803Z,4.55
2023-02-27T08:51:12.695Z,4.15
2023-02-27T08:53:42.833Z,3.87
2023-02-27T08:56:12.358Z,4.50
2023-02-27T08:58:42.192Z,4.45
2023-02-27T09:01:13.774Z,5.08
2023-02-27T09:03:43.261Z,4.28
2023-02-27T09:06:12.809Z,3.83
2023-02-27T09:08:42.707Z,3.83
2023-02-27T09:11:12.197Z,4.17
2023-02-27T09:13:41.696Z,3.85
2023-02-27T09:16:11.652Z,3.92
2023-02-27T09:18:41.150Z,3.92
2023-02-27T09:21:10.602Z,4.50
2023-02-27T09:23:41.160Z,4.67
2023-02-27T09:26:11.131Z,5.00
2023-02-27T09:28:40.635Z,4.85
2023-02-27T09:31:11.442Z,4.83
2023-02-27T09:33:40.964Z,4.67
2023-02-27T09:36:11.177Z,4.05
2023-02-27T09:38:41.530Z,4.30
2023-02-27T09:41:27.337Z,5.15
2023-02-27T09:43:57.479Z,3.98
2023-02-27T09:46:27.746Z,4.10
2023-02-27T09:49:00.811Z,4.35
2023-02-27T09:51:31.226Z,5.03
2023-02-27T09:54:02.798Z,4.97
2023-02-27T09:56:41.329Z,4.65
2023-02-27T09:59:26.007Z,4.50
2023-02-27T10:02:09.708Z,5.20
2023-02-27T10:05:00.717Z,4.50
2023-02-27T10:07:39.702Z,4.53
2023-02-27T10:10:30.546Z,4.67
2023-02-27T10:13:09.361Z,3.90
2023-02-27T10:15:53.008Z,8.00
2023-02-27T10:18:30.855Z,5.03
2023-02-27T10:21:02.837Z,6.30
2023-02-27T10:23:53.835Z,5.35
2023-02-27T10:26:30.140Z,4.50
2023-02-27T10:29:02.475Z,4.50
2023-02-27T10:31:36.220Z,4.75
2023-02-27T10:34:06.460Z,5.45
2023-02-27T10:36:37.346Z,5.53
2023-02-27T10:39:10.159Z,4.35
2023-02-27T10:41:41.425Z,3.98
2023-02-27T10:44:14.654Z,9.40
2023-02-27T10:46:44.976Z,4.12
2023-02-27T10:49:19.171Z,16.80
2023-02-27T10:51:52.211Z,9.05
2023-02-27T10:54:24.419Z,3.90
2023-02-27T10:56:56.904Z,3.77
2023-02-27T10:59:32.577Z,5.33
2023-02-27T11:02:22.283Z,4.22
2023-02-27T11:04:57.289Z,4.20
2023-02-27T11:07:32.796Z,3.35
2023-02-27T11:10:07.349Z,4.80
2023-02-27T11:12:36.988Z,5.60
2023-02-27T11:15:26.128Z,4.20
2023-02-27T11:17:55.646Z,5.92
2023-02-27T11:20:37.203Z,4.90
2023-02-27T11:23:09.953Z,8.68
2023-02-27T11:25:39.488Z,7.75
2023-02-27T11:28:28.550Z,5.72
2023-02-27T11:31:04.053Z,6.50
2023-02-27T11:33:42.730Z,8.70
2023-02-27T11:36:12.389Z,4.50
2023-02-27T11:38:45.026Z,8.00
2023-02-27T11:41:14.989Z,5.27
2023-02-27T11:43:53.593Z,5.12
2023-02-27T11:46:45.881Z,6.08
2023-02-27T11:49:08.651Z,5.28
2023-02-27T11:51:58.534Z,5.87
2023-02-27T11:54:37.185Z,3.90
2023-02-27T11:57:30.866Z,6.20
2023-02-27T12:00:09.108Z,5.58
2023-02-27T12:02:47.533Z,8.75
2023-02-27T12:05:37.258Z,9.30
2023-02-27T12:08:15.719Z,4.90
2023-02-27T12:11:13.017Z,4.08
2023-02-27T12:13:36.856Z,3.65
2023-02-27T12:16:42.983Z,10.30
2023-02-27T12:19:16.090Z,5.47
2023-02-27T12:21:49.693Z,11.65
2023-02-27T12:24:28.845Z,4.37
2023-02-27T12:27:04.207Z,3.30
2023-02-27T12:29:39.580Z,6.40
2023-02-27T12:32:28.226Z,6.55
2023-02-27T12:35:19.280Z,4.95
2023-02-27T12:37:49.443Z,3.80
2023-02-27T12:40:23.770Z,3.77
2023-02-27T12:43:15.238Z,3.27
2023-02-27T12:45:56.882Z,3.33
2023-02-27T12:48:46.548Z,5.07
2023-02-27T12:51:34.882Z,3.70
2023-02-27T12:54:10.365Z,6.47
2023-02-27T12:57:00.934Z,3.40
2023-02-27T12:59:56.918Z,3.85
2023-02-27T13:02:47.615Z,3.47
2023-02-27T13:05:32.555Z,3.65
2023-02-27T13:08:25.977Z,34.03
2023-02-27T13:13:33.696Z,4.83
2023-02-27T13:16:09.113Z,3.65
2023-02-27T13:18:41.599Z,3.80
2023-02-27T13:21:14.210Z,4.12
2023-02-27T13:23:58.611Z,17.23
2023-02-27T13:26:39.634Z,6.87
2023-02-27T13:29:15.761Z,10.65
2023-02-27T13:32:00.493Z,21.70
2023-02-27T13:34:33.274Z,4.67
2023-02-27T13:39:52.864Z,6.12
2023-02-27T13:42:32.739Z,9.70
2023-02-27T13:45:07.333Z,6.30
2023-02-27T13:47:42.597Z,32.30
2023-02-27T13:50:24.050Z,11.57
2023-02-27T13:52:54.772Z,10.10
2023-02-27T13:55:34.817Z,12.20
2023-02-27T13:58:06.940Z,20.10
2023-02-27T14:00:38.193Z,6.33
2023-02-27T14:03:19.929Z,3.52
2023-02-27T14:05:52.037Z,4.40
2023-02-27T14:08:27.687Z,3.97
2023-02-27T14:11:12.052Z,3.95
2023-02-27T14:13:57.634Z,4.42
2023-02-27T14:16:44.577Z,4.40
2023-02-27T14:19:22.293Z,3.52
2023-02-27T14:22:02.409Z,6.03
2023-02-27T14:24:49.653Z,6.40
2023-02-27T14:27:22.306Z,6.70
2023-02-27T14:29:55.184Z,5.75
2023-02-27T14:34:56.946Z,4.28
2023-02-27T14:37:28.532Z,5.03
2023-02-27T14:40:04.546Z,5.17
2023-02-27T14:42:43.948Z,3.70
2023-02-27T14:45:21.020Z,3.62
2023-02-27T14:47:53.920Z,4.17
2023-02-27T14:50:37.213Z,3.80
2023-02-27T14:55:38.089Z,4.22
2023-02-27T14:58:16.372Z,4.07
2023-02-27T15:00:52.164Z,4.40
2023-02-27T15:03:27.625Z,3.98
2023-02-27T15:06:01.337Z,3.70
2023-02-27T15:08:33.815Z,3.40
2023-02-27T15:11:04.257Z,3.75
2023-02-27T15:13:36.195Z,3.30
2023-02-27T15:16:32.148Z,3.93
2023-02-27T15:19:05.080Z,7.62
2023-02-27T15:21:37.405Z,6.50
2023-02-27T15:24:09.434Z,4.85
2023-02-27T15:26:41.623Z,3.73
2023-02-27T15:29:14.113Z,4.17
2023-02-27T15:31:47.388Z,4.67
2023-02-27T15:34:20.501Z,10.48
2023-02-27T15:39:26.699Z,4.42
2023-02-27T15:41:59.275Z,5.55
2023-02-27T15:44:34.532Z,5.20
2023-02-27T15:47:05.440Z,4.53
2023-02-27T15:49:36.187Z,5.67
2023-02-27T15:52:14.762Z,4.45
2023-02-27T15:55:02.354Z,5.60
2023-02-27T15:57:33.595Z,5.40
2023-02-27T16:00:04.914Z,4.58
2023-02-27T16:02:42.833Z,6.65
2023-02-27T16:05:21.121Z,6.95
2023-02-27T16:07:52.487Z,5.87
2023-02-27T16:10:45.850Z,6.87
2023-02-27T16:16:04.794Z,9.45
2023-02-27T16:18:49.202Z,10.00
2023-02-27T16:21:21.189Z,18.15
2023-02-27T16:23:51.517Z,34.60
2023-02-27T16:26:38.228Z,13.73
2023-02-27T16:29:23.391Z,12.93
2023-02-27T16:31:55.546Z,15.75
2023-02-27T16:34:46.536Z,10.63
2023-02-27T16:37:15.587Z,10.72
2023-02-27T16:39:45.133Z,11.53
2023-02-27T16:42:14.641Z,11.22
2023-02-27T16:44:44.130Z,12.78
2023-02-27T16:47:13.673Z,17.32
2023-02-27T16:49:44.590Z,21.15
2023-02-27T16:52:15.268Z,17.83
2023-02-27T16:54:44.855Z,13.78
2023-02-27T16:57:14.300Z,13.15
2023-02-27T16:59:44.828Z,11.38
2023-02-27T17:02:17.205Z,17.15
2023-02-27T17:04:48.277Z,9.85
2023-02-27T17:07:19.313Z,7.55
2023-02-27T17:09:49.477Z,8.13
2023-02-27T17:12:18.971Z,6.62
2023-02-27T17:14:48.411Z,6.30
2023-02-27T17:17:18.306Z,10.30
2023-02-27T17:19:47.888Z,11.05
2023-02-27T17:22:19.214Z,9.33
2023-02-27T17:24:48.638Z,8.23
2023-02-27T17:27:18.066Z,9.05
2023-02-27T17:29:47.795Z,7.92
2023-02-27T17:32:17.247Z,7.65
2023-02-27T17:34:46.693Z,12.70
2023-02-27T17:37:16.500Z,14.45
2023-02-27T17:39:46.003Z,17.67
2023-02-27T17:42:17.693Z,8.95
2023-02-27T17:44:47.757Z,13.57
2023-02-27T17:47:17.473Z,13.43
2023-02-27T17:49:48.062Z,12.58
2023-02-27T17:52:17.566Z,13.85
2023-02-27T17:54:47.433Z,15.10
2023-02-27T17:57:17.492Z,7.55
2023-02-27T17:59:46.987Z,10.13
2023-02-27T18:02:17.112Z,12.00
2023-02-27T18:04:47.717Z,11.73
2023-02-27T18:07:17.151Z,14.23
2023-02-27T18:09:46.659Z,11.88
2023-02-27T18:12:16.504Z,10.10
2023-02-27T18:14:45.930Z,12.20
2023-02-27T18:17:15.426Z,9.80
2023-02-27T18:19:45.238Z,10.25
2023-02-27T18:22:19.052Z,9.55
2023-02-27T18:24:49.511Z,11.88
2023-02-27T18:27:19.043Z,14.85
2023-02-27T18:29:49.383Z,10.50
2023-02-27T18:32:18.927Z,10.65
2023-02-27T18:34:48.391Z,14.07
2023-02-27T18:37:17.915Z,13.45
2023-02-27T18:39:47.860Z,8.35
2023-02-27T18:42:17.499Z,15.48
2023-02-27T18:44:48.504Z,12.73
2023-02-27T18:47:17.939Z,13.00
2023-02-27T18:49:47.365Z,10.38
2023-02-27T18:52:17.500Z,13.50
2023-02-27T18:54:46.930Z,10.82
2023-02-27T18:57:16.572Z,12.18
2023-02-27T18:59:47.838Z,10.45
2023-02-27T19:02:22.454Z,9.65
2023-02-27T19:04:51.966Z,13.80
2023-02-27T19:07:23.376Z,8.63
2023-02-27T19:09:53.394Z,9.37
2023-02-27T19:12:22.951Z,6.90
2023-02-27T19:14:52.554Z,10.05
2023-02-27T19:17:22.361Z,9.80
2023-02-27T19:19:52.478Z,13.95
2023-02-27T19:22:22.287Z,12.13
2023-02-27T19:24:51.898Z,13.75
2023-02-27T19:27:22.869Z,13.15
2023-02-27T19:29:52.544Z,13.22
2023-02-27T19:32:22.855Z,18.77
2023-02-27T19:34:53.294Z,13.48
2023-02-27T19:37:22.710Z,13.25
2023-02-27T19:39:52.199Z,10.23
2023-02-27T19:42:21.870Z,10.60
2023-02-27T19:44:51.435Z,14.18
2023-02-27T19:47:20.952Z,16.12
2023-02-27T19:49:50.406Z,12.73
2023-02-27T19:52:20.046Z,13.30
2023-02-27T19:54:49.476Z,24.27
2023-02-27T19:57:20.465Z,24.85
2023-02-27T19:59:50.098Z,23.65
2023-02-27T20:02:20.049Z,12.24
2023-02-27T20:04:49.601Z,16.97
2023-02-27T20:07:19.348Z,16.62
2023-02-27T20:09:48.868Z,13.78
2023-02-27T20:12:18.306Z,15.50
2023-02-27T20:14:48.056Z,20.88
2023-02-27T20:17:18.083Z,16.45
2023-02-27T20:19:47.493Z,12.35
2023-02-27T20:22:17.506Z,12.82
2023-02-27T20:24:46.914Z,20.05
2023-02-27T20:27:16.413Z,9.75
2023-02-27T20:29:47.654Z,18.77
2023-02-27T20:32:17.694Z,31.87
2023-02-27T20:34:47.882Z,18.45
2023-02-27T20:37:17.866Z,11.85
2023-02-27T20:39:47.364Z,11.08
2023-02-27T20:42:17.110Z,13.62
2023-02-27T20:44:46.622Z,15.60
2023-02-27T20:47:16.040Z,12.50
2023-02-27T20:49:45.762Z,10.93
2023-02-27T20:52:15.354Z,10.98
2023-02-27T20:54:44.783Z,11.95
2023-02-27T20:57:14.505Z,12.93
2023-02-27T20:59:44.000Z,12.25
2023-02-27T21:02:13.732Z,8.65
2023-02-27T21:04:44.309Z,14.45
2023-02-27T21:07:16.334Z,14.47
2023-02-27T21:09:47.430Z,10.23
2023-02-27T21:12:18.180Z,8.93
2023-02-27T21:14:49.563Z,8.23
2023-02-27T21:17:19.608Z,9.63
2023-02-27T21:19:49.414Z,9.75
2023-02-27T21:22:18.916Z,11.43
2023-02-27T21:24:52.030Z,13.93
2023-02-27T21:27:22.930Z,12.90
2023-02-27T21:29:52.477Z,13.48
2023-02-27T21:32:22.119Z,14.38
2023-02-27T21:34:51.585Z,11.10
2023-02-27T21:37:22.129Z,25.95
2023-02-27T21:39:53.207Z,19.25
2023-02-27T21:42:24.200Z,19.30
2023-02-27T21:44:53.692Z,18.42
2023-02-27T21:47:23.116Z,18.42
2023-02-27T21:49:53.100Z,13.50
2023-02-27T21:52:22.602Z,16.02
2023-02-27T21:54:53.773Z,11.38
2023-02-27T21:57:23.690Z,10.90
2023-02-27T21:59:53.136Z,10.08
2023-02-27T22:02:22.923Z,7.28
2023-02-27T22:04:52.405Z,8.68
2023-02-27T22:07:21.834Z,12.15
2023-02-27T22:09:52.115Z,11.45
2023-02-27T22:12:22.322Z,8.10
2023-02-27T22:14:51.824Z,7.10
2023-02-27T22:17:21.357Z,7.12
2023-02-27T22:19:50.878Z,11.57
2023-02-27T22:22:20.763Z,7.53
2023-02-27T22:24:50.223Z,7.25
2023-02-27T22:27:20.086Z,8.63
2023-02-27T22:29:49.585Z,8.60
2023-02-27T22:32:19.536Z,8.68
2023-02-27T22:34:49.805Z,8.70
2023-02-27T22:37:20.020Z,8.68
2023-02-27T22:39:49.435Z,8.28
2023-02-27T22:42:18.865Z,6.90
2023-02-27T22:44:48.395Z,10.23
2023-02-27T22:47:17.804Z,7.17
2023-02-27T22:49:47.307Z,8.20
2023-02-27T22:52:16.790Z,10.05
2023-02-27T22:54:46.974Z,6.75
2023-02-27T22:57:16.549Z,9.15
2023-02-27T22:59:45.974Z,10.82
2023-02-27T23:02:16.728Z,10.90
2023-02-27T23:04:46.309Z,6.08
2023-02-27T23:07:15.728Z,5.62
2023-02-27T23:09:45.834Z,5.95
2023-02-27T23:12:15.265Z,7.42
2023-02-27T23:14:45.671Z,7.75
2023-02-27T23:17:15.086Z,8.10
2023-02-27T23:19:46.322Z,6.85
2023-02-27T23:22:15.746Z,7.83
2023-02-27T23:24:45.241Z,8.63
2023-02-27T23:27:25.855Z,7.97
2023-02-27T23:29:45.827Z,8.95
2023-02-27T23:32:15.588Z,9.55
2023-02-27T23:34:49.645Z,8.55
2023-02-27T23:37:16.587Z,10.90
2023-02-27T23:39:46.006Z,11.85
2023-02-27T23:42:33.712Z,9.90
2023-02-27T23:45:03.140Z,10.48
2023-02-27T23:47:45.032Z,10.82
2023-02-27T23:50:14.595Z,9.00
2023-02-27T23:52:45.066Z,11.03
2023-02-27T23:55:15.171Z,8.88
2023-02-27T23:57:45.411Z,9.08
